Time;durP1;ratioP1;P1;durP2;ratioP2;P2;SDS_P1;SDS_P2;PMS_P1;PMS_P2;Temp;Humidity;BMP_temperature;BMP_pressure;BME280_temperature;BME280_humidity;BME280_pressure;Samples;Min_cycle;Max_cycle;Signal;HPM_P1;HPM_P2
2023/01/26 00:01:09;;;;;;;2.73;2.50;;;2.60;98.00;;;;;;5094705;28;21001;-68
2023/01/26 00:03:36;;;;;;;2.20;1.70;;;2.60;98.00;;;;;;5094446;28;20455;-67
2023/01/26 00:06:13;;;;;;;4.57;2.40;;;2.60;98.00;;;;;;5094727;28;20475;-68
2023/01/26 00:08:41;;;;;;;11.53;4.50;;;2.30;98.00;;;;;;5094792;28;20448;-68
2023/01/26 00:11:12;;;;;;;4.03;2.80;;;2.30;98.00;;;;;;5094801;28;20456;-68
2023/01/26 00:13:39;;;;;;;2.73;1.93;;;2.20;98.00;;;;;;5094767;28;20459;-67
2023/01/26 00:16:10;;;;;;;3.83;2.20;;;2.10;98.00;;;;;;5094632;28;20868;-67
2023/01/26 00:18:38;;;;;;;5.13;2.70;;;2.10;98.00;;;;;;5094678;28;20452;-67
2023/01/26 00:21:06;;;;;;;5.93;2.57;;;2.10;98.00;;;;;;5094257;28;20986;-67
2023/01/26 00:23:34;;;;;;;5.50;3.10;;;2.10;98.00;;;;;;5094283;28;20456;-67
2023/01/26 00:26:02;;;;;;;6.20;2.80;;;2.10;98.00;;;;;;5093345;28;20495;-68
2023/01/26 00:28:30;;;;;;;5.03;2.50;;;2.00;98.00;;;;;;5093683;28;20453;-67
2023/01/26 00:31:03;;;;;;;5.77;3.43;;;1.90;98.00;;;;;;5093754;28;20841;-67
2023/01/26 00:33:30;;;;;;;3.67;2.67;;;2.00;98.00;;;;;;5094390;28;20546;-68
2023/01/26 00:35:58;;;;;;;3.50;2.00;;;2.00;98.00;;;;;;5094267;28;20934;-68
2023/01/26 00:38:25;;;;;;;2.90;2.20;;;2.00;98.00;;;;;;5094409;28;20447;-67
2023/01/26 00:40:52;;;;;;;3.47;2.30;;;2.10;98.00;;;;;;5093991;28;20480;-67
2023/01/26 00:43:19;;;;;;;2.77;2.57;;;2.10;98.00;;;;;;5094577;28;20951;-67
2023/01/26 00:45:48;;;;;;;4.23;3.17;;;2.10;98.00;;;;;;5094316;28;20459;-68
2023/01/26 00:48:16;;;;;;;5.87;3.00;;;2.20;98.00;;;;;;5094308;28;20459;-67
2023/01/26 00:50:43;;;;;;;3.10;1.93;;;2.20;98.00;;;;;;5093799;28;20467;-67
2023/01/26 00:53:11;;;;;;;5.53;2.77;;;2.10;98.00;;;;;;5094041;28;20460;-68
2023/01/26 00:55:38;;;;;;;5.10;2.90;;;2.20;98.00;;;;;;5093433;28;20465;-68
2023/01/26 00:58:07;;;;;;;4.93;2.53;;;2.10;98.00;;;;;;5093745;28;20464;-67
2023/01/26 01:00:36;;;;;;;3.37;2.10;;;2.10;98.00;;;;;;5093641;28;20456;-68
2023/01/26 01:03:12;;;;;;;2.70;1.83;;;2.20;98.00;;;;;;5093578;28;20468;-68
2023/01/26 01:05:39;;;;;;;7.20;2.90;;;2.30;98.00;;;;;;5093325;28;20459;-68
2023/01/26 01:08:06;;;;;;;3.20;2.90;;;2.20;98.00;;;;;;5093854;28;20456;-67
2023/01/26 01:10:33;;;;;;;4.17;2.40;;;2.10;98.00;;;;;;5093582;28;20973;-67
2023/01/26 01:13:00;;;;;;;3.57;2.30;;;2.10;98.00;;;;;;5093481;28;20460;-68
2023/01/26 01:15:27;;;;;;;5.40;2.17;;;2.10;98.00;;;;;;5092631;28;20455;-67
2023/01/26 01:17:54;;;;;;;3.17;1.93;;;2.10;98.00;;;;;;5093137;28;20456;-68
2023/01/26 01:20:25;;;;;;;3.93;3.00;;;2.10;98.00;;;;;;5093378;28;20460;-67
2023/01/26 01:22:52;;;;;;;2.37;1.87;;;2.30;98.00;;;;;;5093061;28;20488;-66
2023/01/26 01:25:21;;;;;;;6.27;2.60;;;2.40;98.00;;;;;;5093066;28;20456;-67
2023/01/26 01:27:48;;;;;;;6.17;2.70;;;2.30;98.00;;;;;;5093430;28;20462;-68
2023/01/26 01:30:15;;;;;;;6.03;2.50;;;2.20;98.00;;;;;;5093024;28;20958;-67
2023/01/26 01:32:43;;;;;;;1.73;1.63;;;2.20;98.00;;;;;;5093301;28;20780;-67
2023/01/26 01:35:11;;;;;;;5.70;2.77;;;2.30;98.00;;;;;;5092911;28;20457;-67
2023/01/26 01:37:40;;;;;;;2.80;2.20;;;2.30;98.00;;;;;;5093296;28;20475;-67
2023/01/26 01:40:11;;;;;;;5.93;2.60;;;2.20;98.00;;;;;;5092899;28;20458;-68
2023/01/26 01:42:38;;;;;;;3.83;2.17;;;2.10;98.00;;;;;;5093122;28;20484;-67
2023/01/26 01:45:40;;;;;;;6.87;2.30;;;2.10;98.00;;;;;;5092928;28;20452;-67
2023/01/26 01:48:15;;;;;;;5.27;2.73;;;2.00;98.00;;;;;;5093043;28;20493;-68
2023/01/26 01:50:43;;;;;;;4.80;1.97;;;2.10;98.00;;;;;;5092758;28;20467;-67
2023/01/26 01:53:23;;;;;;;5.23;3.00;;;2.10;98.00;;;;;;5074751;28;20460;-67
2023/01/26 01:55:54;;;;;;;3.60;2.13;;;2.10;98.00;;;;;;5092583;28;20965;-67
2023/01/26 01:58:22;;;;;;;4.40;3.40;;;2.20;98.00;;;;;;5075173;28;20460;-68
2023/01/26 02:00:49;;;;;;;3.90;2.23;;;2.10;98.00;;;;;;5092396;28;20451;-67
2023/01/26 02:03:20;;;;;;;4.37;2.40;;;2.20;98.00;;;;;;5092611;28;20452;-68
2023/01/26 02:05:55;;;;;;;6.00;3.30;;;2.20;98.00;;;;;;5092340;28;21002;-68
2023/01/26 02:08:28;;;;;;;6.47;4.33;;;2.10;98.00;;;;;;5092545;28;20496;-67
2023/01/26 02:10:59;;;;;;;6.30;3.80;;;2.20;98.00;;;;;;5092425;28;20483;-68
2023/01/26 02:13:27;;;;;;;2.97;2.27;;;2.10;98.00;;;;;;5092647;28;20457;-68
2023/01/26 02:15:55;;;;;;;6.60;2.33;;;2.10;98.00;;;;;;5074615;28;20796;-68
2023/01/26 02:18:22;;;;;;;4.50;2.40;;;2.00;98.00;;;;;;5092727;28;20459;-67
2023/01/26 02:20:52;;;;;;;5.30;2.43;;;2.10;98.00;;;;;;5074236;28;20454;-68
2023/01/26 02:23:35;;;;;;;6.10;3.67;;;2.00;98.00;;;;;;5092193;28;20980;-67
2023/01/26 02:26:12;;;;;;;4.27;3.47;;;2.00;98.00;;;;;;5092075;28;20514;-68
2023/01/26 02:28:40;;;;;;;5.73;2.70;;;2.00;98.00;;;;;;5092002;28;20540;-69
2023/01/26 02:31:09;;;;;;;6.60;3.00;;;1.90;98.00;;;;;;5074465;28;20886;-68
2023/01/26 02:33:41;;;;;;;2.80;1.93;;;1.90;98.00;;;;;;5092227;28;20452;-67
2023/01/26 02:36:16;;;;;;;2.23;1.80;;;1.80;98.00;;;;;;5092178;28;20448;-69
2023/01/26 02:38:51;;;;;;;2.17;2.00;;;1.90;98.00;;;;;;5092144;28;20804;-67
2023/01/26 02:44:01;;;;;;;6.20;2.50;;;2.00;98.00;;;;;;5090947;28;20956;-67
2023/01/26 02:46:28;;;;;;;4.57;2.80;;;1.90;98.00;;;;;;5092138;28;20937;-68
2023/01/26 02:51:39;;;;;;;2.97;2.40;;;2.10;98.00;;;;;;5092069;28;20498;-69
2023/01/26 02:54:07;;;;;;;3.97;2.57;;;2.10;98.00;;;;;;5091717;28;20878;-68
2023/01/26 02:56:38;;;;;;;4.90;2.33;;;2.20;98.00;;;;;;5091964;28;20462;-67
2023/01/26 02:59:05;;;;;;;8.27;3.07;;;2.20;98.00;;;;;;5091701;28;20462;-67
2023/01/26 03:01:33;;;;;;;6.80;3.30;;;2.40;98.00;;;;;;5091703;28;20479;-67
2023/01/26 03:04:00;;;;;;;3.07;2.13;;;2.50;98.00;;;;;;5092075;28;20464;-66
2023/01/26 03:06:27;;;;;;;5.90;3.10;;;2.50;98.00;;;;;;5092100;28;20464;-67
2023/01/26 03:08:54;;;;;;;4.87;2.57;;;2.60;98.00;;;;;;5091834;28;20850;-67
2023/01/26 03:11:21;;;;;;;5.47;2.50;;;2.70;98.00;;;;;;5091816;28;20459;-70
2023/01/26 03:13:50;;;;;;;6.17;3.27;;;2.70;98.00;;;;;;5073759;28;20530;-69
2023/01/26 03:16:17;;;;;;;3.23;2.57;;;2.70;98.00;;;;;;5091839;28;20792;-69
2023/01/26 03:29:46;;;;;;;3.97;2.30;;;2.60;98.00;;;;;;5091738;28;20465;-70
2023/01/26 03:32:13;;;;;;;4.67;2.50;;;2.60;98.00;;;;;;5091703;28;20455;-70
2023/01/26 03:34:40;;;;;;;3.33;2.63;;;2.50;98.00;;;;;;5091603;28;20455;-68
2023/01/26 03:37:07;;;;;;;3.43;2.80;;;2.50;98.00;;;;;;5091728;28;20468;-67
2023/01/26 03:56:17;;;;;;;4.17;2.47;;;2.00;98.00;;;;;;5094989;28;20455;-67
2023/01/26 03:58:44;;;;;;;4.77;2.43;;;2.00;98.00;;;;;;5095040;28;20504;-67
2023/01/26 04:01:18;;;;;;;3.50;2.97;;;2.10;98.00;;;;;;5094536;28;20463;-68
2023/01/26 04:09:18;;;;;;;5.00;2.83;;;2.10;98.00;;;;;;5094854;28;20945;-67
2023/01/26 04:11:46;;;;;;;3.10;2.03;;;2.20;98.00;;;;;;5094848;28;20974;-67
2023/01/26 04:22:31;;;;;;;4.87;2.60;;;2.30;98.00;;;;;;5094622;28;20532;-68
2023/01/26 04:24:58;;;;;;;2.07;1.77;;;2.50;98.00;;;;;;5094428;28;20452;-67
2023/01/26 04:27:25;;;;;;;4.77;2.57;;;2.50;98.00;;;;;;5094621;28;20456;-67
2023/01/26 04:29:52;;;;;;;3.50;2.37;;;2.50;98.00;;;;;;5094386;28;20855;-68
2023/01/26 04:32:28;;;;;;;6.63;3.63;;;2.50;98.00;;;;;;5094664;28;20451;-68
2023/01/26 04:34:55;;;;;;;3.87;2.63;;;2.50;98.00;;;;;;5094439;28;20452;-68
2023/01/26 04:37:23;;;;;;;3.50;2.53;;;2.40;98.00;;;;;;5094452;28;20452;-68
2023/01/26 04:39:50;;;;;;;3.43;2.50;;;2.40;98.00;;;;;;5094363;28;20456;-68
2023/01/26 04:42:17;;;;;;;4.63;2.37;;;2.30;98.00;;;;;;5094026;28;20483;-68
2023/01/26 04:44:45;;;;;;;5.57;2.47;;;2.40;98.00;;;;;;5094310;28;20452;-68
2023/01/26 04:47:12;;;;;;;5.87;3.37;;;2.70;98.00;;;;;;5076331;28;20463;-68
2023/01/26 04:49:40;;;;;;;8.03;2.73;;;2.70;98.00;;;;;;5094230;28;20959;-67
2023/01/26 04:52:07;;;;;;;4.77;2.43;;;2.60;98.00;;;;;;5093612;28;20449;-67
2023/01/26 04:54:35;;;;;;;5.53;2.70;;;2.70;98.00;;;;;;5093894;28;20479;-68
2023/01/26 04:57:02;;;;;;;5.33;2.73;;;2.70;98.00;;;;;;5093717;28;20460;-67
2023/01/26 04:59:30;;;;;;;6.13;2.87;;;2.70;98.00;;;;;;5093626;28;20456;-68
2023/01/26 05:01:57;;;;;;;2.00;1.87;;;2.70;98.00;;;;;;5075712;28;20483;-67
2023/01/26 05:04:24;;;;;;;4.03;2.43;;;2.60;98.00;;;;;;5093825;28;20444;-68
2023/01/26 05:06:53;;;;;;;4.33;2.60;;;2.60;98.00;;;;;;5093224;28;20451;-67
2023/01/26 05:09:20;;;;;;;4.30;2.93;;;2.60;98.00;;;;;;5093464;28;20456;-67
2023/01/26 05:11:48;;;;;;;4.53;2.30;;;2.50;98.00;;;;;;5075584;28;20463;-67
2023/01/26 05:14:15;;;;;;;3.63;2.33;;;2.60;98.00;;;;;;5093790;28;20478;-67
2023/01/26 05:16:42;;;;;;;3.93;1.97;;;2.60;98.00;;;;;;5093488;28;20546;-66
2023/01/26 05:19:09;;;;;;;3.60;2.60;;;2.60;98.00;;;;;;5093701;28;20946;-67
2023/01/26 05:21:37;;;;;;;5.67;2.20;;;2.60;98.00;;;;;;5092382;28;20510;-68
2023/01/26 05:24:07;;;;;;;4.60;2.30;;;2.60;98.00;;;;;;5074526;28;20498;-68
2023/01/26 05:26:34;;;;;;;3.57;2.17;;;2.60;98.00;;;;;;5092764;28;20483;-68
2023/01/26 05:29:01;;;;;;;4.27;2.53;;;2.50;98.00;;;;;;5075555;28;20455;-66
2023/01/26 05:31:28;;;;;;;2.97;2.10;;;2.60;98.00;;;;;;5092400;28;20461;-67
2023/01/26 05:33:56;;;;;;;8.20;3.27;;;2.60;98.00;;;;;;5093222;28;20520;-67
2023/01/26 05:36:23;;;;;;;3.40;2.13;;;2.60;98.00;;;;;;5093388;28;21011;-67
2023/01/26 05:38:50;;;;;;;5.50;2.47;;;2.60;98.00;;;;;;5093217;28;20460;-67
2023/01/26 05:41:18;;;;;;;5.33;2.87;;;2.60;98.00;;;;;;5093447;28;20451;-68
2023/01/26 05:43:46;;;;;;;3.90;2.37;;;2.60;98.00;;;;;;5092987;28;20537;-68
2023/01/26 05:46:13;;;;;;;3.40;2.30;;;2.50;98.00;;;;;;5092642;28;20463;-67
2023/01/26 05:48:40;;;;;;;3.63;2.10;;;2.50;98.00;;;;;;5092888;28;20460;-67
2023/01/26 05:51:07;;;;;;;4.17;2.10;;;2.40;98.00;;;;;;5092495;28;20513;-67
2023/01/26 05:53:35;;;;;;;2.67;2.00;;;2.30;98.00;;;;;;5092655;28;20455;-67
2023/01/26 05:56:02;;;;;;;2.73;1.93;;;2.20;98.00;;;;;;5092681;28;20512;-67
2023/01/26 05:58:31;;;;;;;3.30;2.33;;;2.30;98.00;;;;;;5074475;28;20457;-68
2023/01/26 06:00:58;;;;;;;9.53;3.37;;;2.30;98.00;;;;;;5092741;28;20465;-68
2023/01/26 06:03:26;;;;;;;3.83;2.43;;;2.30;98.00;;;;;;5091966;28;20920;-67
2023/01/26 06:05:54;;;;;;;5.73;2.70;;;2.20;98.00;;;;;;5074564;28;20469;-67
2023/01/26 06:08:21;;;;;;;3.10;2.30;;;2.30;98.00;;;;;;5092488;28;20782;-67
2023/01/26 06:10:48;;;;;;;8.80;3.10;;;2.30;98.00;;;;;;5092401;28;20456;-68
2023/01/26 06:13:15;;;;;;;1.93;1.90;;;2.30;98.00;;;;;;5074245;28;20456;-68
2023/01/26 06:15:50;;;;;;;14.73;2.67;;;2.30;98.00;;;;;;5092722;28;21082;-67
2023/01/26 06:18:17;;;;;;;3.73;3.23;;;2.30;98.00;;;;;;5092553;28;20460;-67
2023/01/26 06:20:45;;;;;;;5.67;3.07;;;2.40;98.00;;;;;;5092332;28;20959;-68
2023/01/26 06:23:12;;;;;;;6.33;3.37;;;2.40;98.00;;;;;;5092391;28;20484;-68
2023/01/26 06:25:39;;;;;;;5.47;2.70;;;2.50;98.00;;;;;;5092250;28;20469;-67
2023/01/26 06:28:07;;;;;;;2.07;1.40;;;2.30;98.00;;;;;;5091953;28;20456;-67
2023/01/26 06:30:34;;;;;;;10.30;2.87;;;2.20;98.00;;;;;;5092239;28;20456;-68
2023/01/26 06:33:02;;;;;;;4.03;2.20;;;2.20;98.00;;;;;;5092590;28;20540;-67
2023/01/26 06:35:29;;;;;;;5.43;2.63;;;2.20;98.00;;;;;;5092351;28;20478;-67
2023/01/26 06:37:58;;;;;;;2.80;2.00;;;2.10;98.00;;;;;;5092446;28;20460;-67
2023/01/26 06:40:25;;;;;;;2.03;1.50;;;2.20;98.00;;;;;;5092269;28;20513;-67
2023/01/26 06:42:52;;;;;;;6.80;2.47;;;2.10;98.00;;;;;;5092082;28;20479;-68
2023/01/26 06:45:20;;;;;;;3.67;2.07;;;2.10;98.00;;;;;;5073905;28;20965;-68
2023/01/26 06:47:47;;;;;;;7.23;2.30;;;2.30;98.00;;;;;;5092034;28;20534;-67
2023/01/26 06:50:20;;;;;;;2.93;2.30;;;2.20;98.00;;;;;;5091823;28;20455;-68
2023/01/26 06:52:50;;;;;;;4.77;2.50;;;2.10;98.00;;;;;;5091782;28;20925;-68
2023/01/26 06:55:21;;;;;;;1.83;1.77;;;2.10;98.00;;;;;;5092187;28;20513;-67
2023/01/26 06:57:48;;;;;;;7.63;2.90;;;1.90;98.00;;;;;;5091797;28;20518;-68
2023/01/26 07:00:16;;;;;;;6.13;2.30;;;1.80;98.00;;;;;;5091935;28;20456;-63
2023/01/26 07:02:43;;;;;;;4.40;2.13;;;1.80;98.00;;;;;;5092029;28;20479;-63
2023/01/26 07:05:10;;;;;;;4.03;2.73;;;1.80;98.00;;;;;;5091817;28;20528;-63
2023/01/26 07:07:39;;;;;;;3.60;2.17;;;1.80;98.00;;;;;;5091786;28;20452;-63
2023/01/26 07:10:07;;;;;;;5.20;2.70;;;1.90;98.00;;;;;;5091816;28;20451;-63
2023/01/26 07:12:41;;;;;;;3.63;2.10;;;1.80;98.00;;;;;;5091976;28;20455;-63
2023/01/26 07:15:10;;;;;;;7.60;2.63;;;1.80;98.00;;;;;;5095834;28;20459;-63
2023/01/26 07:17:39;;;;;;;3.03;1.90;;;1.70;98.00;;;;;;5095916;28;20454;-63
2023/01/26 07:20:07;;;;;;;2.90;2.40;;;1.80;98.00;;;;;;5095870;28;20448;-63
2023/01/26 07:22:34;;;;;;;4.43;2.60;;;1.80;98.00;;;;;;5095805;28;20950;-63
2023/01/26 07:25:02;;;;;;;3.63;2.30;;;1.80;98.00;;;;;;5077838;28;20452;-63
2023/01/26 07:27:29;;;;;;;3.27;2.60;;;1.80;98.00;;;;;;5095768;28;20456;-63
2023/01/26 07:29:56;;;;;;;5.80;2.40;;;1.80;98.00;;;;;;5095667;28;20464;-63
2023/01/26 07:32:24;;;;;;;2.87;1.73;;;1.90;98.00;;;;;;5077792;28;20459;-63
2023/01/26 07:34:51;;;;;;;2.67;1.80;;;2.00;98.00;;;;;;5095731;28;20448;-63
2023/01/26 07:37:18;;;;;;;3.07;2.10;;;2.00;98.00;;;;;;5095667;28;20505;-63
2023/01/26 07:39:45;;;;;;;4.00;2.40;;;2.00;98.00;;;;;;5077561;28;20950;-63
2023/01/26 07:42:13;;;;;;;4.57;2.80;;;2.10;98.00;;;;;;5095432;28;20459;-63
2023/01/26 07:44:49;;;;;;;3.03;1.83;;;2.10;98.00;;;;;;5094815;28;20495;-63
2023/01/26 07:47:18;;;;;;;1.60;1.50;;;2.10;98.00;;;;;;5076715;28;20455;-63
2023/01/26 07:49:45;;;;;;;10.50;3.80;;;2.10;98.00;;;;;;5094677;28;20496;-63
2023/01/26 07:52:13;;;;;;;3.93;2.40;;;2.10;98.00;;;;;;5094620;28;20452;-63
2023/01/26 07:54:40;;;;;;;5.57;2.30;;;2.10;98.00;;;;;;5094956;28;20520;-63
2023/01/26 07:57:07;;;;;;;3.40;2.70;;;2.00;98.00;;;;;;5094842;28;20448;-63
2023/01/26 07:59:35;;;;;;;4.03;2.77;;;2.00;98.00;;;;;;5094885;28;20485;-63
2023/01/26 08:02:02;;;;;;;2.50;2.33;;;2.20;98.00;;;;;;5094863;28;20458;-63
2023/01/26 08:04:30;;;;;;;15.77;2.67;;;2.20;98.00;;;;;;5094911;28;20480;-63
2023/01/26 08:06:58;;;;;;;4.73;2.50;;;2.30;98.00;;;;;;5094785;28;20458;-63
2023/01/26 08:09:25;;;;;;;3.63;2.00;;;2.40;98.00;;;;;;5094652;28;20484;-63
2023/01/26 08:11:52;;;;;;;4.30;1.90;;;2.50;98.00;;;;;;5094682;28;20464;-63
2023/01/26 08:14:19;;;;;;;10.83;2.50;;;2.40;98.00;;;;;;5094877;28;20452;-63
2023/01/26 08:16:48;;;;;;;3.33;2.20;;;2.30;98.00;;;;;;5094638;28;20464;-63
2023/01/26 08:19:17;;;;;;;2.60;2.03;;;2.30;98.00;;;;;;5094878;28;20452;-63
2023/01/26 08:21:44;;;;;;;5.27;2.60;;;2.10;98.00;;;;;;5094408;28;20448;-63
2023/01/26 08:24:12;;;;;;;2.60;2.03;;;2.10;98.00;;;;;;5094608;28;20503;-63
2023/01/26 08:26:40;;;;;;;3.93;2.40;;;2.10;98.00;;;;;;5093858;28;20460;-63
2023/01/26 08:29:07;;;;;;;3.90;2.53;;;2.10;98.00;;;;;;5094397;28;20468;-63
2023/01/26 08:31:35;;;;;;;4.20;1.73;;;2.10;98.00;;;;;;5094589;28;20459;-63
2023/01/26 08:34:04;;;;;;;8.20;3.20;;;2.00;98.00;;;;;;5094437;28;20495;-63
2023/01/26 08:36:34;;;;;;;2.10;1.97;;;2.20;98.00;;;;;;5094526;28;20459;-63
2023/01/26 08:39:01;;;;;;;3.37;1.83;;;2.30;98.00;;;;;;5094233;28;20497;-63
2023/01/26 08:41:30;;;;;;;1.20;1.10;;;2.40;98.00;;;;;;5094290;28;20506;-63
2023/01/26 08:43:58;;;;;;;6.03;2.30;;;2.40;98.00;;;;;;5093874;28;20823;-63
2023/01/26 08:46:25;;;;;;;3.00;2.10;;;2.50;98.00;;;;;;5094191;28;20456;-63
2023/01/26 08:48:52;;;;;;;4.17;2.60;;;2.40;98.00;;;;;;5093841;28;20451;-63
2023/01/26 08:51:21;;;;;;;4.03;2.90;;;2.40;98.00;;;;;;5094001;28;20455;-63
2023/01/26 08:53:48;;;;;;;3.87;2.27;;;2.40;98.00;;;;;;5093995;28;20525;-63
2023/01/26 08:56:15;;;;;;;3.37;2.50;;;2.40;98.00;;;;;;5093842;28;20460;-63
2023/01/26 08:58:42;;;;;;;4.63;2.30;;;2.60;98.00;;;;;;5093912;28;20452;-63
2023/01/26 09:01:13;;;;;;;5.70;3.00;;;2.60;98.00;;;;;;5093835;28;20468;-63
2023/01/26 09:03:41;;;;;;;5.00;2.47;;;2.70;98.00;;;;;;5093591;28;20545;-63
2023/01/26 09:06:12;;;;;;;2.70;2.53;;;2.70;98.00;;;;;;5093699;28;20464;-63
2023/01/26 09:08:41;;;;;;;2.90;2.53;;;2.70;98.00;;;;;;5077740;28;20460;-62
2023/01/26 09:11:09;;;;;;;2.63;2.00;;;2.60;98.00;;;;;;5073164;28;20457;-63
2023/01/26 09:13:37;;;;;;;2.73;1.80;;;2.50;98.00;;;;;;5073413;28;20461;-63
2023/01/26 09:16:09;;;;;;;2.73;2.40;;;2.60;98.00;;;;;;5073824;28;20480;-61
2023/01/26 09:18:36;;;;;;;4.97;2.43;;;2.60;98.00;;;;;;5075440;28;20452;-63
2023/01/26 09:21:05;;;;;;;9.03;2.90;;;2.60;98.00;;;;;;5093123;28;20989;-63
2023/01/26 09:23:33;;;;;;;9.33;3.13;;;2.30;98.00;;;;;;5075173;28;20476;-63
2023/01/26 09:26:02;;;;;;;3.80;2.53;;;2.40;98.00;;;;;;5093298;28;20486;-63
2023/01/26 09:28:30;;;;;;;5.50;3.00;;;2.30;98.00;;;;;;5093372;28;20463;-62
2023/01/26 09:30:58;;;;;;;3.00;2.23;;;2.40;98.00;;;;;;5075138;28;20451;-63
2023/01/26 09:33:25;;;;;;;3.47;2.27;;;2.50;98.00;;;;;;5075515;28;20452;-63
2023/01/26 09:35:52;;;;;;;1.17;1.17;;;2.60;98.00;;;;;;5093211;28;20460;-63
2023/01/26 09:38:19;;;;;;;2.73;1.50;;;2.90;98.00;;;;;;5092426;28;20486;-63
2023/01/26 09:40:57;;;;;;;6.10;2.50;;;3.00;98.00;;;;;;5092989;28;20501;-63
2023/01/26 09:43:36;;;;;;;4.50;2.40;;;3.00;98.00;;;;;;5092704;28;20479;-63
2023/01/26 09:46:17;;;;;;;4.77;2.33;;;3.10;98.00;;;;;;5075471;28;20460;-62
2023/01/26 09:48:53;;;;;;;2.03;1.90;;;3.20;98.00;;;;;;5092355;28;20543;-61
2023/01/26 09:51:24;;;;;;;2.50;1.90;;;3.30;98.00;;;;;;5092924;28;20517;-61
2023/01/26 09:53:55;;;;;;;3.20;2.57;;;3.20;98.00;;;;;;5092586;28;20444;-61
2023/01/26 09:56:27;;;;;;;3.03;2.30;;;3.00;98.00;;;;;;5092769;28;20458;-61
2023/01/26 09:59:00;;;;;;;6.70;2.03;;;3.00;98.00;;;;;;5092586;28;20543;-61
2023/01/26 10:01:35;;;;;;;2.30;2.00;;;2.90;98.00;;;;;;5092614;28;20452;-61
2023/01/26 10:04:11;;;;;;;3.63;1.80;;;2.80;98.00;;;;;;5074468;28;20486;-61
2023/01/26 10:06:39;;;;;;;2.63;1.93;;;2.80;98.00;;;;;;5092474;28;20547;-61
2023/01/26 10:09:14;;;;;;;3.50;2.00;;;2.60;98.00;;;;;;5092757;28;20813;-61
2023/01/26 10:11:45;;;;;;;3.87;2.70;;;2.60;98.00;;;;;;5092412;28;20827;-61
2023/01/26 10:14:19;;;;;;;4.63;2.30;;;2.50;98.00;;;;;;5091763;28;20448;-61
2023/01/26 10:16:49;;;;;;;3.30;2.20;;;2.40;98.00;;;;;;5091738;28;20931;-61
2023/01/26 10:19:25;;;;;;;3.00;1.60;;;2.40;98.00;;;;;;5091942;28;20498;-61
2023/01/26 10:21:54;;;;;;;2.47;1.83;;;2.30;98.00;;;;;;5092364;28;20455;-60
2023/01/26 10:24:23;;;;;;;2.53;1.90;;;2.30;98.00;;;;;;5092537;28;20480;-60
2023/01/26 10:26:54;;;;;;;3.67;2.37;;;2.40;98.00;;;;;;5092159;28;20488;-60
2023/01/26 10:29:24;;;;;;;2.60;1.97;;;2.30;98.00;;;;;;5092535;28;20501;-60
2023/01/26 10:31:51;;;;;;;4.17;2.40;;;2.40;98.00;;;;;;5092395;28;20965;-61
2023/01/26 10:34:23;;;;;;;2.43;2.10;;;2.50;98.00;;;;;;5092916;28;20850;-63
2023/01/26 10:36:50;;;;;;;3.93;2.47;;;2.40;98.00;;;;;;5091886;28;20972;-62
2023/01/26 10:39:18;;;;;;;6.50;2.20;;;2.50;98.00;;;;;;5091955;28;20866;-63
2023/01/26 10:42:02;;;;;;;2.47;2.33;;;2.60;98.00;;;;;;5092039;28;20483;-62
2023/01/26 10:44:34;;;;;;;2.03;1.50;;;2.60;98.00;;;;;;5089208;28;20482;-63
2023/01/26 10:47:13;;;;;;;9.30;1.60;;;2.60;98.00;;;;;;5091826;28;20459;-62
2023/01/26 10:49:43;;;;;;;2.60;1.50;;;2.60;98.00;;;;;;5090444;28;20456;-63
2023/01/26 10:52:17;;;;;;;2.57;1.80;;;2.60;98.00;;;;;;5071775;28;21207;-63
2023/01/26 10:55:08;;;;;;;3.13;1.83;;;2.50;98.00;;;;;;5071344;28;21008;-63
2023/01/26 10:57:38;;;;;;;3.80;1.77;;;2.60;98.00;;;;;;5056510;28;20828;-63
2023/01/26 11:00:24;;;;;;;3.63;2.13;;;2.50;98.00;;;;;;5071480;28;20448;-63
2023/01/26 11:02:54;;;;;;;2.30;1.80;;;2.50;98.00;;;;;;5071775;28;20456;-63
2023/01/26 11:05:23;;;;;;;1.90;1.80;;;2.50;98.00;;;;;;5071639;28;20856;-63
2023/01/26 11:07:57;;;;;;;4.40;2.17;;;2.60;98.00;;;;;;5071398;28;21076;-63
2023/01/26 11:10:30;;;;;;;3.63;1.63;;;2.60;98.00;;;;;;5071855;28;20456;-64
2023/01/26 11:13:13;;;;;;;1.60;1.40;;;2.60;98.00;;;;;;5070826;28;20449;-63
2023/01/26 11:15:44;;;;;;;2.00;1.60;;;2.60;98.00;;;;;;5071092;28;20461;-63
2023/01/26 11:18:22;;;;;;;1.97;1.60;;;2.60;98.00;;;;;;5071649;28;20464;-63
2023/01/26 11:20:57;;;;;;;1.63;1.43;;;2.70;98.00;;;;;;5071552;28;20453;-63
2023/01/26 11:23:43;;;;;;;1.63;1.50;;;2.70;98.00;;;;;;5071573;28;20522;-63
2023/01/26 11:26:47;;;;;;;3.33;2.53;;;2.70;98.00;;;;;;5071413;28;20537;-63
2023/01/26 11:30:02;;;;;;;3.73;2.23;;;2.70;98.00;;;;;;5071580;28;20464;-63
2023/01/26 11:32:39;;;;;;;3.93;1.70;;;2.60;98.00;;;;;;5071678;28;20465;-63
2023/01/26 11:35:16;;;;;;;2.20;2.07;;;2.60;98.00;;;;;;5071742;28;20456;-63
2023/01/26 11:37:47;;;;;;;4.57;1.60;;;2.60;98.00;;;;;;5071446;28;20456;-63
2023/01/26 11:40:30;;;;;;;3.30;2.07;;;2.50;98.00;;;;;;5053453;28;20464;-62
2023/01/26 11:43:13;;;;;;;2.60;1.97;;;2.50;98.00;;;;;;5071401;28;20460;-63
2023/01/26 11:45:58;;;;;;;4.70;3.10;;;2.50;98.00;;;;;;5053300;28;21119;-64
2023/01/26 11:48:37;;;;;;;1.77;1.63;;;2.50;98.00;;;;;;5071277;28;20954;-63
2023/01/26 11:51:14;;;;;;;3.00;1.80;;;2.60;98.00;;;;;;5071309;28;20925;-63
2023/01/26 11:53:59;;;;;;;3.50;1.87;;;2.60;98.00;;;;;;5071155;28;20989;-62
2023/01/26 11:56:41;;;;;;;1.60;1.53;;;2.60;98.00;;;;;;5054858;28;20453;-63
2023/01/26 11:59:16;;;;;;;4.10;2.27;;;2.70;98.00;;;;;;5071071;28;20500;-63
2023/01/26 12:01:49;;;;;;;2.97;2.13;;;2.60;98.00;;;;;;5074019;28;20456;-63
2023/01/26 12:04:21;;;;;;;2.53;2.00;;;2.60;98.00;;;;;;5074599;28;20520;-63
2023/01/26 12:06:54;;;;;;;3.27;2.00;;;2.60;98.00;;;;;;5074457;28;20460;-62
2023/01/26 12:09:31;;;;;;;3.83;2.23;;;2.70;98.00;;;;;;5074506;28;20464;-63
2023/01/26 12:12:04;;;;;;;11.10;2.80;;;2.60;98.00;;;;;;5057993;28;20475;-64
2023/01/26 12:14:38;;;;;;;1.70;1.60;;;2.60;98.00;;;;;;5074681;28;20487;-63
2023/01/26 12:17:31;;;;;;;3.37;2.07;;;2.50;98.00;;;;;;5088244;28;20562;-63
2023/01/26 12:20:06;;;;;;;1.70;1.30;;;2.40;98.00;;;;;;5091328;28;20459;-63
2023/01/26 12:22:36;;;;;;;2.60;2.40;;;2.30;98.00;;;;;;5095077;28;20447;-63
2023/01/26 12:25:23;;;;;;;4.80;2.80;;;2.20;98.00;;;;;;5094867;28;20480;-64
2023/01/26 12:27:56;;;;;;;5.53;2.97;;;2.10;98.00;;;;;;5094731;28;20459;-64
2023/01/26 12:30:34;;;;;;;3.00;1.80;;;2.10;98.00;;;;;;5077156;28;20460;-64
2023/01/26 12:33:02;;;;;;;4.77;2.90;;;2.00;98.00;;;;;;5094677;28;20832;-63
2023/01/26 12:35:44;;;;;;;3.70;2.50;;;2.10;98.00;;;;;;5094556;28;20451;-62
2023/01/26 12:38:19;;;;;;;6.10;2.60;;;2.10;98.00;;;;;;5093870;28;20479;-63
2023/01/26 12:40:58;;;;;;;3.20;2.10;;;2.00;98.00;;;;;;5093855;28;21053;-63
2023/01/26 12:43:41;;;;;;;4.93;2.50;;;1.80;98.00;;;;;;5077415;28;20535;-63
2023/01/26 12:46:10;;;;;;;4.27;2.30;;;1.80;98.00;;;;;;5093976;28;20487;-64
2023/01/26 12:48:42;;;;;;;2.10;1.80;;;1.90;98.00;;;;;;5094014;28;20953;-63
2023/01/26 12:51:15;;;;;;;5.97;2.10;;;1.90;98.00;;;;;;5093917;28;20452;-63
2023/01/26 12:53:51;;;;;;;3.43;2.27;;;1.90;98.00;;;;;;5094122;28;20459;-63
2023/01/26 12:56:25;;;;;;;2.40;1.70;;;2.00;98.00;;;;;;5093928;28;20462;-63
2023/01/26 12:58:55;;;;;;;1.97;1.40;;;2.00;98.00;;;;;;5093769;28;20463;-63
2023/01/26 13:01:25;;;;;;;4.60;2.70;;;2.20;98.00;;;;;;5093781;28;20811;-63
2023/01/26 13:03:55;;;;;;;2.80;2.00;;;2.20;98.00;;;;;;5093891;28;20458;-63
2023/01/26 13:06:25;;;;;;;5.27;2.07;;;2.20;98.00;;;;;;5093690;28;20491;-64
2023/01/26 13:09:03;;;;;;;1.70;1.70;;;2.10;98.00;;;;;;5093639;28;20885;-63
2023/01/26 13:11:53;;;;;;;6.03;2.50;;;2.10;98.00;;;;;;5093403;28;20939;-63
2023/01/26 13:14:38;;;;;;;4.33;2.43;;;2.10;98.00;;;;;;5088186;28;20945;-63
2023/01/26 13:17:48;;;;;;;4.37;3.37;;;2.20;98.00;;;;;;5093632;28;20456;-64
2023/01/26 13:20:37;;;;;;;4.67;2.60;;;2.00;98.00;;;;;;5010982;28;20539;-63
2023/01/26 13:23:49;;;;;;;4.13;2.20;;;2.00;98.00;;;;;;5090213;28;20475;-64
2023/01/26 13:26:49;;;;;;;8.00;3.07;;;1.90;98.00;;;;;;5093406;28;20480;-64
2023/01/26 13:29:30;;;;;;;3.90;2.47;;;1.90;98.00;;;;;;5093427;28;20491;-64
2023/01/26 13:31:59;;;;;;;3.67;2.00;;;1.90;98.00;;;;;;5093519;28;20460;-64
2023/01/26 13:34:31;;;;;;;2.47;2.27;;;2.00;98.00;;;;;;5093461;28;20882;-64
2023/01/26 13:37:06;;;;;;;2.97;1.70;;;2.00;98.00;;;;;;5092939;28;20455;-64
2023/01/26 13:39:41;;;;;;;2.47;1.73;;;1.90;98.00;;;;;;5093469;28;20463;-64
2023/01/26 13:42:19;;;;;;;3.60;2.00;;;1.90;98.00;;;;;;5093121;28;20460;-63
2023/01/26 13:44:52;;;;;;;3.93;1.67;;;2.00;98.00;;;;;;5092726;28;21072;-64
2023/01/26 13:47:24;;;;;;;4.50;2.33;;;2.00;98.00;;;;;;5092953;28;20459;-64
2023/01/26 13:49:51;;;;;;;3.10;2.67;;;2.00;98.00;;;;;;5092751;28;20463;-64
2023/01/26 13:52:21;;;;;;;3.23;2.07;;;2.00;98.00;;;;;;5092814;28;21036;-64
2023/01/26 13:54:52;;;;;;;3.63;2.40;;;2.00;98.00;;;;;;5093036;28;20457;-64
2023/01/26 13:57:23;;;;;;;5.00;3.80;;;2.00;98.00;;;;;;5093018;28;20457;-64
2023/01/26 13:59:51;;;;;;;3.90;2.30;;;2.00;98.00;;;;;;5092675;28;20462;-64
2023/01/26 14:02:23;;;;;;;3.00;2.30;;;1.90;98.00;;;;;;5092456;28;20455;-64
2023/01/26 14:04:56;;;;;;;2.87;2.10;;;1.80;98.00;;;;;;5092619;28;21012;-64